sensor_id;sensor_type;location;lat;lon;timestamp;pressure;altitude;pressure_sealevel;temperature;humidity
40315;BME280;26021;45.640;11.302;2023-02-26T00:02:02;96832.84;;;8.69;100.00
40315;BME280;26021;45.640;11.302;2023-02-26T00:04:27;96857.31;;;8.90;100.00
40315;BME280;26021;45.640;11.302;2023-02-26T00:06:53;96868.75;;;8.66;100.00
40315;BME280;26021;45.640;11.302;2023-02-26T00:09:19;96838.09;;;8.50;100.00
40315;BME280;26021;45.640;11.302;2023-02-26T00:11:45;96868.53;;;8.68;100.00
40315;BME280;26021;45.640;11.302;2023-02-26T00:14:13;96867.50;;;8.69;100.00
40315;BME280;26021;45.640;11.302;2023-02-26T00:16:39;96842.53;;;8.63;100.00
40315;BME280;26021;45.640;11.302;2023-02-26T00:19:06;96865.72;;;8.56;100.00
40315;BME280;26021;45.640;11.302;2023-02-26T00:21:33;96861.44;;;8.55;100.00
40315;BME280;26021;45.640;11.302;2023-02-26T00:23:59;96866.44;;;8.76;100.00
40315;BME280;26021;45.640;11.302;2023-02-26T00:26:28;96865.59;;;8.82;100.00
40315;BME280;26021;45.640;11.302;2023-02-26T00:28:54;96845.22;;;8.56;100.00
40315;BME280;26021;45.640;11.302;2023-02-26T00:31:21;96878.34;;;8.74;100.00
40315;BME280;26021;45.640;11.302;2023-02-26T00:33:51;96883.03;;;8.78;100.00
40315;BME280;26021;45.640;11.302;2023-02-26T00:41:22;96892.69;;;8.73;100.00
40315;BME280;26021;45.640;11.302;2023-02-26T00:43:48;96891.22;;;8.83;100.00
40315;BME280;26021;45.640;11.302;2023-02-26T00:46:36;96900.94;;;8.65;100.00
40315;BME280;26021;45.640;11.302;2023-02-26T00:49:40;96905.00;;;8.74;100.00
40315;BME280;26021;45.640;11.302;2023-02-26T00:55:13;96872.38;;;8.78;100.00
40315;BME280;26021;45.640;11.302;2023-02-26T00:57:38;96911.22;;;9.06;100.00
40315;BME280;26021;45.640;11.302;2023-02-26T01:00:05;96917.00;;;8.89;100.00
40315;BME280;26021;45.640;11.302;2023-02-26T01:02:33;96891.72;;;8.60;100.00
40315;BME280;26021;45.640;11.302;2023-02-26T01:04:59;96907.06;;;8.72;100.00
40315;BME280;26021;45.640;11.302;2023-02-26T01:07:25;96886.22;;;8.55;100.00
40315;BME280;26021;45.640;11.302;2023-02-26T01:09:52;96921.88;;;9.06;100.00
40315;BME280;26021;45.640;11.302;2023-02-26T01:12:18;96925.34;;;9.06;100.00
40315;BME280;26021;45.640;11.302;2023-02-26T01:14:44;96891.69;;;8.67;100.00
40315;BME280;26021;45.640;11.302;2023-02-26T01:17:16;96923.78;;;8.85;100.00
40315;BME280;26021;45.640;11.302;2023-02-26T01:19:53;96921.59;;;8.76;100.00
40315;BME280;26021;45.640;11.302;2023-02-26T01:22:24;96922.59;;;8.81;100.00
40315;BME280;26021;45.640;11.302;2023-02-26T01:28:01;96926.13;;;9.13;100.00
40315;BME280;26021;45.640;11.302;2023-02-26T01:30:27;96929.84;;;9.12;100.00
40315;BME280;26021;45.640;11.302;2023-02-26T01:33:48;96929.53;;;8.96;100.00
40315;BME280;26021;45.640;11.302;2023-02-26T01:38:34;96923.06;;;8.65;100.00
40315;BME280;26021;45.640;11.302;2023-02-26T01:46:30;96914.41;;;8.76;100.00
40315;BME280;26021;45.640;11.302;2023-02-26T01:48:58;96915.69;;;8.67;100.00
40315;BME280;26021;45.640;11.302;2023-02-26T01:54:17;96909.34;;;9.06;100.00
40315;BME280;26021;45.640;11.302;2023-02-26T01:56:44;96947.84;;;8.72;100.00
40315;BME280;26021;45.640;11.302;2023-02-26T01:59:14;96990.13;;;8.62;100.00
40315;BME280;26021;45.640;11.302;2023-02-26T02:01:40;96997.72;;;7.46;100.00
40315;BME280;26021;45.640;11.302;2023-02-26T02:04:11;97008.13;;;6.80;100.00
40315;BME280;26021;45.640;11.302;2023-02-26T02:06:38;97021.69;;;6.57;100.00
40315;BME280;26021;45.640;11.302;2023-02-26T02:09:04;97026.56;;;6.19;100.00
40315;BME280;26021;45.640;11.302;2023-02-26T02:11:30;97023.28;;;6.17;100.00
40315;BME280;26021;45.640;11.302;2023-02-26T02:31:05;97092.69;;;5.57;100.00
40315;BME280;26021;45.640;11.302;2023-02-26T02:33:41;97087.03;;;5.24;100.00
40315;BME280;26021;45.640;11.302;2023-02-26T02:36:39;97098.72;;;5.00;100.00
40315;BME280;26021;45.640;11.302;2023-02-26T02:39:12;97101.09;;;5.09;100.00
40315;BME280;26021;45.640;11.302;2023-02-26T02:42:08;97031.91;;;4.68;100.00
40315;BME280;26021;45.640;11.302;2023-02-26T02:44:45;97118.38;;;5.05;100.00
40315;BME280;26021;45.640;11.302;2023-02-26T02:47:13;97091.97;;;4.83;100.00
40315;BME280;26021;45.640;11.302;2023-02-26T02:50:02;97136.47;;;5.02;100.00
40315;BME280;26021;45.640;11.302;2023-02-26T02:52:35;97162.97;;;5.02;100.00
40315;BME280;26021;45.640;11.302;2023-02-26T02:55:06;97148.06;;;5.01;100.00
40315;BME280;26021;45.640;11.302;2023-02-26T02:57:44;97145.69;;;5.06;100.00
40315;BME280;26021;45.640;11.302;2023-02-26T03:00:12;97128.44;;;4.81;100.00
40315;BME280;26021;45.640;11.302;2023-02-26T03:05:12;97150.72;;;5.01;100.00
40315;BME280;26021;45.640;11.302;2023-02-26T03:07:47;97192.91;;;5.02;100.00
40315;BME280;26021;45.640;11.302;2023-02-26T03:10:14;97199.41;;;5.00;100.00
40315;BME280;26021;45.640;11.302;2023-02-26T03:12:40;97198.69;;;5.06;100.00
40315;BME280;26021;45.640;11.302;2023-02-26T03:15:07;97199.59;;;4.98;100.00
40315;BME280;26021;45.640;11.302;2023-02-26T03:17:39;97198.69;;;5.06;100.00
40315;BME280;26021;45.640;11.302;2023-02-26T03:28:29;97210.91;;;4.92;100.00
40315;BME280;26021;45.640;11.302;2023-02-26T03:31:14;97026.72;;;3.93;100.00
40315;BME280;26021;45.640;11.302;2023-02-26T03:36:44;97203.50;;;4.88;100.00
40315;BME280;26021;45.640;11.302;2023-02-26T03:39:22;97204.16;;;5.04;100.00
40315;BME280;26021;45.640;11.302;2023-02-26T03:41:58;97199.88;;;5.03;100.00
40315;BME280;26021;45.640;11.302;2023-02-26T03:44:38;97188.53;;;5.09;100.00
40315;BME280;26021;45.640;11.302;2023-02-26T03:47:10;97196.88;;;5.21;100.00
40315;BME280;26021;45.640;11.302;2023-02-26T03:49:41;97155.00;;;4.87;100.00
40315;BME280;26021;45.640;11.302;2023-02-26T03:52:10;97210.84;;;5.00;100.00
40315;BME280;26021;45.640;11.302;2023-02-26T03:54:40;97204.13;;;4.75;100.00
40315;BME280;26021;45.640;11.302;2023-02-26T03:57:07;97199.53;;;4.54;100.00
40315;BME280;26021;45.640;11.302;2023-02-26T03:59:33;97030.56;;;3.45;100.00
40315;BME280;26021;45.640;11.302;2023-02-26T04:02:09;97200.41;;;4.84;100.00
40315;BME280;26021;45.640;11.302;2023-02-26T04:04:50;97140.00;;;4.65;100.00
40315;BME280;26021;45.640;11.302;2023-02-26T04:07:18;97195.13;;;5.14;100.00
40315;BME280;26021;45.640;11.302;2023-02-26T04:09:48;97174.72;;;4.85;100.00
40315;BME280;26021;45.640;11.302;2023-02-26T04:12:14;97194.84;;;5.08;100.00
40315;BME280;26021;45.640;11.302;2023-02-26T04:14:40;97193.28;;;4.99;100.00
40315;BME280;26021;45.640;11.302;2023-02-26T04:17:05;97210.38;;;5.11;100.00
40315;BME280;26021;45.640;11.302;2023-02-26T04:19:31;97216.88;;;5.09;100.00
40315;BME280;26021;45.640;11.302;2023-02-26T04:21:56;97214.56;;;4.91;100.00
40315;BME280;26021;45.640;11.302;2023-02-26T04:24:22;97218.03;;;4.92;100.00
40315;BME280;26021;45.640;11.302;2023-02-26T04:26:48;97209.72;;;4.95;100.00
40315;BME280;26021;45.640;11.302;2023-02-26T04:29:13;97214.75;;;5.19;100.00
40315;BME280;26021;45.640;11.302;2023-02-26T04:31:40;97215.03;;;5.09;100.00
40315;BME280;26021;45.640;11.302;2023-02-26T04:34:05;97215.78;;;5.18;100.00
40315;BME280;26021;45.640;11.302;2023-02-26T04:36:31;97217.97;;;5.15;100.00
40315;BME280;26021;45.640;11.302;2023-02-26T04:38:57;97199.06;;;5.32;100.00
40315;BME280;26021;45.640;11.302;2023-02-26T04:41:23;97206.13;;;5.25;100.00
40315;BME280;26021;45.640;11.302;2023-02-26T04:43:49;97211.41;;;5.25;100.00
40315;BME280;26021;45.640;11.302;2023-02-26T04:46:15;97128.59;;;4.50;100.00
40315;BME280;26021;45.640;11.302;2023-02-26T04:48:40;97211.75;;;4.55;100.00
40315;BME280;26021;45.640;11.302;2023-02-26T04:51:06;97146.06;;;4.36;100.00
40315;BME280;26021;45.640;11.302;2023-02-26T04:53:31;97160.28;;;4.35;100.00
40315;BME280;26021;45.640;11.302;2023-02-26T04:55:57;97206.94;;;4.59;100.00
40315;BME280;26021;45.640;11.302;2023-02-26T04:58:22;97201.81;;;4.57;100.00
40315;BME280;26021;45.640;11.302;2023-02-26T05:00:49;97213.25;;;4.72;100.00
40315;BME280;26021;45.640;11.302;2023-02-26T05:03:15;97214.38;;;4.78;100.00
40315;BME280;26021;45.640;11.302;2023-02-26T05:05:42;97211.00;;;4.99;100.00
40315;BME280;26021;45.640;11.302;2023-02-26T05:08:07;97154.06;;;4.65;100.00
40315;BME280;26021;45.640;11.302;2023-02-26T05:10:33;97191.63;;;4.69;100.00
40315;BME280;26021;45.640;11.302;2023-02-26T05:12:58;97194.59;;;4.51;100.00
40315;BME280;26021;45.640;11.302;2023-02-26T05:15:24;97195.41;;;4.52;100.00
40315;BME280;26021;45.640;11.302;2023-02-26T05:17:49;97179.75;;;4.65;100.00
40315;BME280;26021;45.640;11.302;2023-02-26T05:20:15;97197.47;;;4.79;100.00
40315;BME280;26021;45.640;11.302;2023-02-26T05:22:41;97200.22;;;4.86;100.00
40315;BME280;26021;45.640;11.302;2023-02-26T05:25:08;97196.84;;;4.77;100.00
40315;BME280;26021;45.640;11.302;2023-02-26T05:27:34;97188.25;;;4.75;100.00
40315;BME280;26021;45.640;11.302;2023-02-26T05:29:59;97175.91;;;4.67;100.00
40315;BME280;26021;45.640;11.302;2023-02-26T05:32:26;97124.75;;;4.52;100.00
40315;BME280;26021;45.640;11.302;2023-02-26T05:34:51;97180.03;;;4.85;100.00
40315;BME280;26021;45.640;11.302;2023-02-26T05:37:16;97182.69;;;4.99;100.00
40315;BME280;26021;45.640;11.302;2023-02-26T05:39:42;97184.69;;;4.97;100.00
40315;BME280;26021;45.640;11.302;2023-02-26T05:42:07;97178.94;;;5.08;100.00
40315;BME280;26021;45.640;11.302;2023-02-26T05:44:33;97185.16;;;5.01;100.00
40315;BME280;26021;45.640;11.302;2023-02-26T05:47:00;97183.97;;;5.03;100.00
40315;BME280;26021;45.640;11.302;2023-02-26T05:49:26;97189.72;;;5.07;100.00
40315;BME280;26021;45.640;11.302;2023-02-26T05:51:51;97194.13;;;5.00;100.00
40315;BME280;26021;45.640;11.302;2023-02-26T05:54:17;97185.88;;;4.95;100.00
40315;BME280;26021;45.640;11.302;2023-02-26T05:56:42;97180.59;;;4.95;100.00
40315;BME280;26021;45.640;11.302;2023-02-26T05:59:08;97135.28;;;4.75;100.00
40315;BME280;26021;45.640;11.302;2023-02-26T06:01:33;97187.34;;;5.12;100.00
40315;BME280;26021;45.640;11.302;2023-02-26T06:04:01;97171.09;;;5.00;100.00
40315;BME280;26021;45.640;11.302;2023-02-26T06:06:27;97194.13;;;5.15;100.00
40315;BME280;26021;45.640;11.302;2023-02-26T06:08:52;97196.06;;;5.21;100.00
40315;BME280;26021;45.640;11.302;2023-02-26T06:11:17;97196.94;;;5.13;100.00
40315;BME280;26021;45.640;11.302;2023-02-26T06:13:43;97202.59;;;5.10;100.00
40315;BME280;26021;45.640;11.302;2023-02-26T06:16:08;97216.34;;;5.28;100.00
40315;BME280;26021;45.640;11.302;2023-02-26T06:18:34;97233.41;;;5.11;100.00
40315;BME280;26021;45.640;11.302;2023-02-26T06:21:00;97226.53;;;4.87;100.00
40315;BME280;26021;45.640;11.302;2023-02-26T06:23:26;97230.47;;;4.54;100.00
40315;BME280;26021;45.640;11.302;2023-02-26T06:25:52;97240.94;;;4.24;100.00
40315;BME280;26021;45.640;11.302;2023-02-26T06:28:18;97226.75;;;3.94;100.00
40315;BME280;26021;45.640;11.302;2023-02-26T06:30:44;97245.44;;;3.93;100.00
40315;BME280;26021;45.640;11.302;2023-02-26T06:33:10;97211.34;;;3.67;100.00
40315;BME280;26021;45.640;11.302;2023-02-26T06:35:36;97254.22;;;4.16;100.00
40315;BME280;26021;45.640;11.302;2023-02-26T06:38:01;97242.66;;;3.86;100.00
40315;BME280;26021;45.640;11.302;2023-02-26T06:40:27;97242.00;;;3.84;100.00
40315;BME280;26021;45.640;11.302;2023-02-26T06:42:53;97253.03;;;3.57;100.00
40315;BME280;26021;45.640;11.302;2023-02-26T06:45:18;97264.66;;;3.39;100.00
40315;BME280;26021;45.640;11.302;2023-02-26T06:47:44;97265.19;;;3.27;100.00
40315;BME280;26021;45.640;11.302;2023-02-26T06:50:10;97260.06;;;3.33;100.00
40315;BME280;26021;45.640;11.302;2023-02-26T06:52:35;97287.31;;;3.34;100.00
40315;BME280;26021;45.640;11.302;2023-02-26T06:55:02;97298.19;;;3.39;100.00
40315;BME280;26021;45.640;11.302;2023-02-26T06:57:28;97297.22;;;3.32;100.00
40315;BME280;26021;45.640;11.302;2023-02-26T06:59:53;97309.13;;;3.28;100.00
40315;BME280;26021;45.640;11.302;2023-02-26T07:02:20;97324.63;;;3.39;100.00
40315;BME280;26021;45.640;11.302;2023-02-26T07:04:46;97309.59;;;3.31;100.00
40315;BME280;26021;45.640;11.302;2023-02-26T07:07:12;97322.63;;;3.41;100.00
40315;BME280;26021;45.640;11.302;2023-02-26T07:09:38;97325.75;;;3.53;100.00
40315;BME280;26021;45.640;11.302;2023-02-26T07:12:03;97329.84;;;3.63;100.00
40315;BME280;26021;45.640;11.302;2023-02-26T07:14:31;97332.00;;;3.60;100.00
40315;BME280;26021;45.640;11.302;2023-02-26T07:16:57;97337.41;;;3.82;100.00
40315;BME280;26021;45.640;11.302;2023-02-26T07:19:22;97349.88;;;4.05;100.00
40315;BME280;26021;45.640;11.302;2023-02-26T07:21:47;97351.13;;;4.17;100.00
40315;BME280;26021;45.640;11.302;2023-02-26T07:24:13;97357.63;;;4.06;100.00
40315;BME280;26021;45.640;11.302;2023-02-26T07:26:38;97354.72;;;4.24;100.00
40315;BME280;26021;45.640;11.302;2023-02-26T07:29:04;97372.56;;;4.30;100.00
40315;BME280;26021;45.640;11.302;2023-02-26T07:31:30;97373.91;;;4.26;100.00
40315;BME280;26021;45.640;11.302;2023-02-26T07:33:56;97385.22;;;4.43;100.00
40315;BME280;26021;45.640;11.302;2023-02-26T07:36:21;97373.81;;;4.11;100.00
40315;BME280;26021;45.640;11.302;2023-02-26T07:38:47;97376.25;;;4.21;100.00
40315;BME280;26021;45.640;11.302;2023-02-26T07:41:12;97374.69;;;4.35;100.00
40315;BME280;26021;45.640;11.302;2023-02-26T07:43:38;97366.84;;;4.50;100.00
40315;BME280;26021;45.640;11.302;2023-02-26T07:46:04;97373.69;;;4.67;100.00
40315;BME280;26021;45.640;11.302;2023-02-26T07:48:29;97371.81;;;4.75;100.00
40315;BME280;26021;45.640;11.302;2023-02-26T07:50:54;97366.16;;;4.78;100.00
40315;BME280;26021;45.640;11.302;2023-02-26T07:53:21;97378.41;;;4.79;100.00
40315;BME280;26021;45.640;11.302;2023-02-26T07:55:46;97377.53;;;4.64;100.00
40315;BME280;26021;45.640;11.302;2023-02-26T07:58:12;97386.88;;;4.75;100.00
40315;BME280;26021;45.640;11.302;2023-02-26T08:00:37;97386.81;;;5.06;100.00
40315;BME280;26021;45.640;11.302;2023-02-26T08:03:02;97326.91;;;4.59;100.00
40315;BME280;26021;45.640;11.302;2023-02-26T08:05:28;97309.66;;;4.63;100.00
40315;BME280;26021;45.640;11.302;2023-02-26T08:07:54;97394.78;;;4.83;100.00
40315;BME280;26021;45.640;11.302;2023-02-26T08:10:19;97398.19;;;4.69;100.00
40315;BME280;26021;45.640;11.302;2023-02-26T08:12:45;97401.31;;;4.95;100.00
40315;BME280;26021;45.640;11.302;2023-02-26T08:15:11;97401.19;;;4.89;100.00
40315;BME280;26021;45.640;11.302;2023-02-26T08:17:39;97399.34;;;5.12;100.00
40315;BME280;26021;45.640;11.302;2023-02-26T08:20:06;97396.41;;;5.07;100.00
40315;BME280;26021;45.640;11.302;2023-02-26T08:22:32;97409.38;;;5.02;100.00
40315;BME280;26021;45.640;11.302;2023-02-26T08:24:58;97402.72;;;5.06;100.00
40315;BME280;26021;45.640;11.302;2023-02-26T08:27:23;97394.38;;;4.94;100.00
40315;BME280;26021;45.640;11.302;2023-02-26T08:29:49;97412.78;;;5.10;100.00
40315;BME280;26021;45.640;11.302;2023-02-26T08:32:15;97421.97;;;5.00;100.00
40315;BME280;26021;45.640;11.302;2023-02-26T08:34:42;97420.81;;;5.02;100.00
40315;BME280;26021;45.640;11.302;2023-02-26T08:37:08;97394.88;;;5.13;100.00
40315;BME280;26021;45.640;11.302;2023-02-26T08:39:36;97419.38;;;5.37;100.00
40315;BME280;26021;45.640;11.302;2023-02-26T08:42:04;97247.00;;;4.33;100.00
40315;BME280;26021;45.640;11.302;2023-02-26T08:44:30;97408.31;;;5.34;100.00
40315;BME280;26021;45.640;11.302;2023-02-26T08:46:56;97417.09;;;5.34;100.00
40315;BME280;26021;45.640;11.302;2023-02-26T08:49:21;97414.72;;;5.39;100.00
40315;BME280;26021;45.640;11.302;2023-02-26T08:51:46;97423.00;;;5.59;100.00
40315;BME280;26021;45.640;11.302;2023-02-26T08:54:12;97424.38;;;5.55;100.00
40315;BME280;26021;45.640;11.302;2023-02-26T08:56:38;97372.84;;;5.12;100.00
40315;BME280;26021;45.640;11.302;2023-02-26T08:59:03;97395.13;;;5.26;99.95
40315;BME280;26021;45.640;11.302;2023-02-26T09:01:29;97425.25;;;5.48;100.00
40315;BME280;26021;45.640;11.302;2023-02-26T09:03:54;97422.63;;;5.62;97.14
40315;BME280;26021;45.640;11.302;2023-02-26T09:06:20;97324.84;;;4.92;97.61
40315;BME280;26021;45.640;11.302;2023-02-26T09:08:45;97433.91;;;5.64;96.83
40315;BME280;26021;45.640;11.302;2023-02-26T09:11:11;97441.78;;;5.72;100.00
40315;BME280;26021;45.640;11.302;2023-02-26T09:13:37;97443.59;;;5.72;99.58
40315;BME280;26021;45.640;11.302;2023-02-26T09:16:03;97403.53;;;5.67;99.94
40315;BME280;26021;45.640;11.302;2023-02-26T09:18:28;97442.78;;;5.71;96.42
40315;BME280;26021;45.640;11.302;2023-02-26T09:20:54;97447.22;;;5.56;96.67
40315;BME280;26021;45.640;11.302;2023-02-26T09:23:19;97394.16;;;5.41;95.01
40315;BME280;26021;45.640;11.302;2023-02-26T09:25:45;97459.38;;;5.88;95.74
40315;BME280;26021;45.640;11.302;2023-02-26T09:28:10;97455.50;;;5.76;93.10
40315;BME280;26021;45.640;11.302;2023-02-26T09:30:36;97460.88;;;5.68;93.25
40315;BME280;26021;45.640;11.302;2023-02-26T09:33:01;97402.41;;;5.47;90.52
40315;BME280;26021;45.640;11.302;2023-02-26T09:35:27;97460.81;;;5.76;85.83
40315;BME280;26021;45.640;11.302;2023-02-26T09:37:52;97462.34;;;5.70;90.18
40315;BME280;26021;45.640;11.302;2023-02-26T09:40:31;97464.34;;;5.68;90.30
40315;BME280;26021;45.640;11.302;2023-02-26T09:45:49;97473.53;;;6.03;90.48
40315;BME280;26021;45.640;11.302;2023-02-26T09:48:17;97477.66;;;6.21;88.90
40315;BME280;26021;45.640;11.302;2023-02-26T09:50:47;97436.91;;;5.61;84.34
40315;BME280;26021;45.640;11.302;2023-02-26T09:53:37;97485.56;;;5.91;86.14
40315;BME280;26021;45.640;11.302;2023-02-26T09:56:13;97447.72;;;5.97;87.38
40315;BME280;26021;45.640;11.302;2023-02-26T09:58:42;97470.44;;;6.15;87.37
40315;BME280;26021;45.640;11.302;2023-02-26T10:01:28;97479.75;;;6.40;83.64
40315;BME280;26021;45.640;11.302;2023-02-26T10:04:26;97488.38;;;6.27;81.20
40315;BME280;26021;45.640;11.302;2023-02-26T10:12:26;97495.31;;;6.14;77.18
40315;BME280;26021;45.640;11.302;2023-02-26T10:26:24;97485.59;;;6.65;74.76
40315;BME280;26021;45.640;11.302;2023-02-26T10:34:43;97490.53;;;6.97;76.84
40315;BME280;26021;45.640;11.302;2023-02-26T10:42:50;97496.34;;;7.65;72.98
40315;BME280;26021;45.640;11.302;2023-02-26T10:45:41;97498.44;;;7.48;71.60
40315;BME280;26021;45.640;11.302;2023-02-26T10:50:52;97495.41;;;7.51;76.40
40315;BME280;26021;45.640;11.302;2023-02-26T10:53:19;97498.63;;;7.47;73.24
40315;BME280;26021;45.640;11.302;2023-02-26T10:56:09;97502.34;;;7.74;66.61
40315;BME280;26021;45.640;11.302;2023-02-26T10:58:33;97500.88;;;7.28;69.60
40315;BME280;26021;45.640;11.302;2023-02-26T11:00:59;97512.41;;;7.36;70.94
40315;BME280;26021;45.640;11.302;2023-02-26T11:03:32;97506.25;;;7.14;70.68
40315;BME280;26021;45.640;11.302;2023-02-26T11:05:59;97497.78;;;7.25;73.19
40315;BME280;26021;45.640;11.302;2023-02-26T11:08:48;97499.53;;;7.18;71.13
40315;BME280;26021;45.640;11.302;2023-02-26T11:11:34;97503.97;;;7.32;73.58
40315;BME280;26021;45.640;11.302;2023-02-26T11:14:01;97496.69;;;7.41;67.68
40315;BME280;26021;45.640;11.302;2023-02-26T11:16:27;97507.50;;;7.18;68.38
40315;BME280;26021;45.640;11.302;2023-02-26T11:18:54;97509.00;;;7.06;67.54
40315;BME280;26021;45.640;11.302;2023-02-26T11:21:26;97509.88;;;7.27;68.13
40315;BME280;26021;45.640;11.302;2023-02-26T11:24:18;97521.59;;;7.33;67.93
40315;BME280;26021;45.640;11.302;2023-02-26T11:26:48;97505.81;;;7.31;68.27
40315;BME280;26021;45.640;11.302;2023-02-26T11:29:18;97508.84;;;7.43;67.68
40315;BME280;26021;45.640;11.302;2023-02-26T11:31:49;97500.56;;;7.81;64.71
40315;BME280;26021;45.640;11.302;2023-02-26T11:34:14;97498.13;;;7.58;68.36
40315;BME280;26021;45.640;11.302;2023-02-26T11:36:41;97493.75;;;7.72;67.32
40315;BME280;26021;45.640;11.302;2023-02-26T11:41:46;97435.72;;;7.18;66.82
40315;BME280;26021;45.640;11.302;2023-02-26T11:44:18;97493.59;;;7.16;62.18
40315;BME280;26021;45.640;11.302;2023-02-26T11:46:51;97473.34;;;6.79;62.48
40315;BME280;26021;45.640;11.302;2023-02-26T11:49:20;97448.28;;;6.22;62.26
40315;BME280;26021;45.640;11.302;2023-02-26T11:51:48;97510.28;;;6.74;64.84
40315;BME280;26021;45.640;11.302;2023-02-26T11:54:27;97472.91;;;6.46;65.06
40315;BME280;26021;45.640;11.302;2023-02-26T11:57:03;97498.78;;;6.88;62.85
40315;BME280;26021;45.640;11.302;2023-02-26T11:59:31;97481.16;;;7.01;63.19
40315;BME280;26021;45.640;11.302;2023-02-26T12:02:09;97511.63;;;7.20;63.79
40315;BME280;26021;45.640;11.302;2023-02-26T12:04:44;97514.06;;;7.37;63.27
40315;BME280;26021;45.640;11.302;2023-02-26T12:07:15;97526.50;;;7.51;63.37
40315;BME280;26021;45.640;11.302;2023-02-26T12:09:45;97525.06;;;7.33;61.27
40315;BME280;26021;45.640;11.302;2023-02-26T12:15:22;97512.19;;;7.16;63.24
40315;BME280;26021;45.640;11.302;2023-02-26T12:18:05;97431.38;;;6.59;60.33
40315;BME280;26021;45.640;11.302;2023-02-26T12:29:49;97515.53;;;7.03;60.92
40315;BME280;26021;45.640;11.302;2023-02-26T12:37:33;97507.69;;;7.16;58.37
40315;BME280;26021;45.640;11.302;2023-02-26T12:43:15;97515.88;;;7.15;57.48
40315;BME280;26021;45.640;11.302;2023-02-26T12:57:25;97524.91;;;6.84;58.22
40315;BME280;26021;45.640;11.302;2023-02-26T13:10:54;97536.31;;;7.50;59.60
40315;BME280;26021;45.640;11.302;2023-02-26T13:21:47;97529.59;;;6.82;54.72
40315;BME280;26021;45.640;11.302;2023-02-26T13:24:33;97536.16;;;7.01;55.91
40315;BME280;26021;45.640;11.302;2023-02-26T13:27:01;97536.16;;;7.01;55.24
40315;BME280;26021;45.640;11.302;2023-02-26T13:29:34;97535.78;;;7.04;55.72
40315;BME280;26021;45.640;11.302;2023-02-26T13:32:04;97541.94;;;7.05;56.49
40315;BME280;26021;45.640;11.302;2023-02-26T13:34:53;97544.31;;;7.36;54.91
40315;BME280;26021;45.640;11.302;2023-02-26T13:37:37;97551.34;;;7.22;56.64
40315;BME280;26021;45.640;11.302;2023-02-26T13:42:56;97565.81;;;7.19;57.31
40315;BME280;26021;45.640;11.302;2023-02-26T13:48:21;97568.97;;;7.08;56.56
40315;BME280;26021;45.640;11.302;2023-02-26T13:51:11;97564.31;;;6.95;55.51
40315;BME280;26021;45.640;11.302;2023-02-26T13:56:22;97585.19;;;7.13;56.82
40315;BME280;26021;45.640;11.302;2023-02-26T13:59:01;97586.34;;;7.25;56.98
40315;BME280;26021;45.640;11.302;2023-02-26T14:01:52;97586.03;;;6.99;57.25
40315;BME280;26021;45.640;11.302;2023-02-26T14:06:47;97600.25;;;6.77;57.40
40315;BME280;26021;45.640;11.302;2023-02-26T14:19:43;97601.31;;;7.12;57.78
40315;BME280;26021;45.640;11.302;2023-02-26T14:22:19;97606.19;;;7.08;56.97
40315;BME280;26021;45.640;11.302;2023-02-26T14:24:56;97605.09;;;7.03;57.21
40315;BME280;26021;45.640;11.302;2023-02-26T14:27:32;97605.53;;;7.21;59.71
40315;BME280;26021;45.640;11.302;2023-02-26T14:35:11;97591.69;;;7.11;57.78
40315;BME280;26021;45.640;11.302;2023-02-26T14:37:42;97619.56;;;7.15;59.13
40315;BME280;26021;45.640;11.302;2023-02-26T14:40:16;97621.47;;;7.36;56.35
40315;BME280;26021;45.640;11.302;2023-02-26T14:42:50;97619.84;;;7.05;58.35
40315;BME280;26021;45.640;11.302;2023-02-26T14:47:51;97636.72;;;6.97;59.44
40315;BME280;26021;45.640;11.302;2023-02-26T14:50:18;97633.78;;;6.92;57.54
40315;BME280;26021;45.640;11.302;2023-02-26T14:55:20;97646.53;;;6.82;57.13
40315;BME280;26021;45.640;11.302;2023-02-26T15:00:50;97651.66;;;6.69;60.22
40315;BME280;26021;45.640;11.302;2023-02-26T15:17:30;97666.44;;;6.26;65.71
40315;BME280;26021;45.640;11.302;2023-02-26T15:19:49;97628.03;;;5.91;69.88
40315;BME280;26021;45.640;11.302;2023-02-26T15:25:04;97600.22;;;5.56;74.73
40315;BME280;26021;45.640;11.302;2023-02-26T15:27:32;97695.69;;;5.87;77.36
40315;BME280;26021;45.640;11.302;2023-02-26T15:29:59;97690.66;;;5.69;79.49
40315;BME280;26021;45.640;11.302;2023-02-26T15:32:25;97694.88;;;5.55;81.80
40315;BME280;26021;45.640;11.302;2023-02-26T15:35:00;97707.38;;;5.38;83.83
40315;BME280;26021;45.640;11.302;2023-02-26T15:37:28;97704.91;;;5.37;83.36
40315;BME280;26021;45.640;11.302;2023-02-26T15:39:57;97716.81;;;5.41;86.05
40315;BME280;26021;45.640;11.302;2023-02-26T15:42:29;97707.09;;;5.33;84.59
40315;BME280;26021;45.640;11.302;2023-02-26T15:44:57;97718.69;;;5.32;85.97
40315;BME280;26021;45.640;11.302;2023-02-26T15:47:26;97725.50;;;5.27;87.95
40315;BME280;26021;45.640;11.302;2023-02-26T15:49:53;97537.38;;;4.08;87.27
40315;BME280;26021;45.640;11.302;2023-02-26T15:52:22;97726.97;;;5.29;83.10
40315;BME280;26021;45.640;11.302;2023-02-26T15:54:51;97744.41;;;5.24;83.32
40315;BME280;26021;45.640;11.302;2023-02-26T15:57:18;97754.31;;;5.30;84.67
40315;BME280;26021;45.640;11.302;2023-02-26T15:59:47;97729.16;;;5.09;84.55
40315;BME280;26021;45.640;11.302;2023-02-26T16:02:20;97753.84;;;5.10;84.24
40315;BME280;26021;45.640;11.302;2023-02-26T16:04:46;97761.28;;;5.23;85.05
40315;BME280;26021;45.640;11.302;2023-02-26T16:07:12;97747.69;;;5.18;82.61
40315;BME280;26021;45.640;11.302;2023-02-26T16:09:50;97717.91;;;5.07;81.33
40315;BME280;26021;45.640;11.302;2023-02-26T16:14:58;97758.28;;;5.18;80.17
40315;BME280;26021;45.640;11.302;2023-02-26T16:17:33;97751.34;;;5.25;78.46
40315;BME280;26021;45.640;11.302;2023-02-26T16:20:05;97791.88;;;5.50;77.96